createdAt,value
2018-08-09T00:00:59.512Z,5.40
2018-08-09T00:03:33.859Z,5.70
2018-08-09T00:06:08.056Z,6.20
2018-08-09T00:08:42.396Z,6.20
2018-08-09T00:11:16.650Z,6.33
2018-08-09T00:13:50.915Z,5.73
2018-08-09T00:16:25.199Z,7.03
2018-08-09T00:18:59.510Z,6.27
2018-08-09T00:21:34.276Z,5.70
2018-08-09T00:24:08.516Z,6.43
2018-08-09T00:26:42.720Z,6.63
2018-08-09T00:29:17.081Z,5.80
2018-08-09T00:31:51.383Z,5.90
2018-08-09T00:34:25.739Z,6.47
2018-08-09T00:36:59.984Z,6.33
2018-08-09T00:39:34.267Z,6.10
2018-08-09T00:42:08.516Z,6.47
2018-08-09T00:44:42.724Z,7.23
2018-08-09T00:47:17.045Z,7.10
2018-08-09T00:49:51.380Z,6.80
2018-08-09T00:52:25.624Z,7.80
2018-08-09T00:54:59.956Z,7.50
2018-08-09T00:57:34.267Z,8.07
2018-08-09T01:00:08.588Z,7.73
2018-08-09T01:02:42.852Z,7.37
2018-08-09T01:05:17.159Z,8.40
2018-08-09T01:07:51.512Z,7.97
2018-08-09T01:10:25.856Z,7.43
2018-08-09T01:13:00.248Z,7.13
2018-08-09T01:15:34.399Z,6.80
2018-08-09T01:18:09.480Z,8.13
2018-08-09T01:20:43.823Z,8.60
2018-08-09T01:23:18.009Z,8.33
2018-08-09T01:25:52.252Z,8.37
2018-08-09T01:28:26.524Z,8.60
2018-08-09T01:31:00.759Z,6.53
2018-08-09T01:33:34.981Z,8.23
2018-08-09T01:36:09.252Z,8.17
2018-08-09T01:38:43.548Z,7.80
2018-08-09T01:41:17.968Z,7.67
2018-08-09T01:44:01.554Z,8.13
2018-08-09T01:46:35.732Z,8.10
2018-08-09T01:49:09.980Z,8.07
2018-08-09T01:51:44.279Z,8.77
2018-08-09T01:54:18.632Z,9.13
2018-08-09T01:56:53.716Z,8.53
2018-08-09T01:59:28.152Z,6.87
2018-08-09T02:02:02.560Z,7.37
2018-08-09T02:04:36.877Z,8.00
2018-08-09T02:07:11.310Z,7.53
2018-08-09T02:09:45.591Z,8.00
2018-08-09T02:12:19.945Z,8.17
2018-08-09T02:14:54.284Z,8.13
2018-08-09T02:17:28.581Z,7.20
2018-08-09T02:20:02.939Z,7.63
2018-08-09T02:22:37.299Z,8.77
2018-08-09T02:25:11.663Z,5.60
2018-08-09T02:27:45.837Z,7.50
2018-08-09T02:30:20.173Z,8.80
2018-08-09T02:32:54.532Z,8.27
2018-08-09T02:35:28.707Z,9.17
2018-08-09T02:38:02.980Z,9.07
2018-08-09T02:40:37.333Z,9.03
2018-08-09T02:43:11.552Z,9.67
2018-08-09T02:45:45.808Z,9.27
2018-08-09T02:48:19.965Z,8.50
2018-08-09T02:50:54.272Z,7.20
2018-08-09T02:53:28.539Z,8.93
2018-08-09T02:56:03.050Z,8.53
2018-08-09T02:58:37.244Z,8.77
2018-08-09T03:01:11.428Z,8.97
2018-08-09T03:03:45.720Z,9.40
2018-08-09T03:06:20.052Z,10.10
2018-08-09T03:08:54.492Z,10.30
2018-08-09T03:11:28.800Z,10.37
2018-08-09T03:14:03.177Z,9.57
2018-08-09T03:16:37.379Z,9.33
2018-08-09T03:19:11.560Z,7.40
2018-08-09T03:21:45.750Z,10.80
2018-08-09T03:24:20.174Z,10.30
2018-08-09T03:26:54.473Z,11.50
2018-08-09T03:29:28.812Z,11.10
2018-08-09T03:32:03.201Z,10.60
2018-08-09T03:34:37.591Z,18.60
2018-08-09T03:37:11.947Z,12.93
2018-08-09T03:39:46.216Z,12.20
2018-08-09T03:42:20.486Z,13.57
2018-08-09T03:44:54.808Z,12.47
2018-08-09T03:47:29.148Z,12.90
2018-08-09T03:50:03.469Z,11.60
2018-08-09T03:52:37.812Z,13.90
2018-08-09T03:55:12.162Z,12.97
2018-08-09T03:57:46.392Z,13.57
2018-08-09T04:00:20.724Z,9.77
2018-08-09T04:02:54.952Z,12.00
2018-08-09T04:05:29.212Z,11.40
2018-08-09T04:08:03.522Z,11.10
2018-08-09T04:10:37.844Z,11.23
2018-08-09T04:13:12.207Z,12.03
2018-08-09T04:15:46.566Z,11.57
2018-08-09T04:18:20.827Z,12.67
2018-08-09T04:20:55.132Z,11.10
2018-08-09T04:23:29.463Z,12.50
2018-08-09T04:26:03.816Z,12.10
2018-08-09T04:28:41.712Z,11.17
2018-08-09T04:31:15.924Z,11.67
2018-08-09T04:33:50.300Z,11.70
2018-08-09T04:36:24.616Z,13.13
2018-08-09T04:38:58.835Z,13.13
2018-08-09T04:41:33.040Z,12.30
2018-08-09T04:44:07.492Z,12.20
2018-08-09T04:46:41.792Z,11.47
2018-08-09T04:49:16.379Z,11.87
2018-08-09T04:51:50.584Z,12.87
2018-08-09T04:54:24.835Z,12.30
2018-08-09T04:56:59.064Z,12.50
2018-08-09T04:59:33.402Z,11.83
2018-08-09T05:02:07.752Z,12.27
2018-08-09T05:04:42.054Z,12.73
2018-08-09T05:07:16.411Z,14.83
2018-08-09T05:09:50.700Z,13.53
2018-08-09T05:12:25.124Z,14.67
2018-08-09T05:14:59.349Z,15.23
2018-08-09T05:17:33.776Z,14.93
2018-08-09T05:20:08.108Z,14.90
2018-08-09T05:22:42.400Z,14.73
2018-08-09T05:25:16.786Z,14.37
2018-08-09T05:27:50.949Z,15.53
2018-08-09T05:30:25.139Z,16.20
2018-08-09T05:32:59.303Z,15.10
2018-08-09T05:35:33.636Z,14.40
2018-08-09T05:38:07.876Z,13.77
2018-08-09T05:40:42.186Z,12.80
2018-08-09T05:43:16.572Z,13.00
2018-08-09T05:45:50.961Z,12.67
2018-08-09T05:48:25.268Z,13.93
2018-08-09T05:50:59.560Z,14.80
2018-08-09T05:53:33.870Z,14.57
2018-08-09T05:56:08.172Z,14.17
2018-08-09T05:58:42.476Z,12.93
2018-08-09T06:13:15.025Z,14.23
2018-08-09T06:15:49.586Z,13.07
2018-08-09T06:18:23.856Z,14.90
2018-08-09T06:20:58.024Z,13.77
2018-08-09T06:23:32.452Z,14.60
2018-08-09T06:26:06.863Z,14.00
2018-08-09T06:28:41.213Z,14.37
2018-08-09T06:31:15.363Z,14.10
2018-08-09T06:33:49.717Z,13.67
2018-08-09T06:36:24.408Z,14.13
2018-08-09T06:38:58.668Z,12.93
2018-08-09T06:41:33.012Z,13.03
2018-08-09T06:44:07.556Z,14.37
2018-08-09T06:46:42.038Z,13.40
2018-08-09T06:49:29.457Z,13.00
2018-08-09T06:52:03.783Z,14.43
2018-08-09T06:54:37.976Z,14.37
2018-08-09T06:57:12.168Z,14.83
2018-08-09T06:59:46.515Z,14.70
2018-08-09T07:02:20.848Z,13.67
2018-08-09T07:04:55.180Z,13.43
2018-08-09T07:07:29.507Z,12.40
2018-08-09T07:10:04.796Z,13.27
2018-08-09T07:12:39.181Z,14.47
2018-08-09T07:15:13.963Z,14.43
2018-08-09T07:17:48.384Z,15.30
2018-08-09T07:20:22.804Z,16.30
2018-08-09T07:22:57.295Z,15.83
2018-08-09T07:25:31.728Z,16.53
2018-08-09T07:28:06.808Z,15.03
2018-08-09T07:30:41.168Z,15.70
2018-08-09T07:33:15.472Z,16.17
2018-08-09T07:35:49.651Z,16.20
2018-08-09T07:38:23.932Z,14.03
2018-08-09T07:40:58.272Z,13.83
2018-08-09T07:43:32.479Z,15.77
2018-08-09T07:46:06.981Z,14.53
2018-08-09T07:48:41.277Z,15.03
2018-08-09T07:51:15.735Z,13.77
2018-08-09T07:53:50.081Z,14.87
2018-08-09T07:56:24.441Z,14.67
2018-08-09T07:58:58.772Z,12.57
2018-08-09T08:01:33.050Z,12.03
2018-08-09T08:04:07.496Z,10.33
2018-08-09T08:06:41.773Z,9.23
2018-08-09T08:09:16.072Z,8.80
2018-08-09T08:11:50.349Z,10.00
2018-08-09T08:14:24.516Z,8.50
2018-08-09T08:16:58.884Z,8.90
2018-08-09T08:19:33.156Z,7.70
2018-08-09T08:22:07.909Z,7.80
2018-08-09T08:24:42.190Z,7.20
2018-08-09T08:27:16.600Z,8.30
2018-08-09T08:29:50.765Z,7.77
2018-08-09T08:32:25.100Z,7.30
2018-08-09T08:34:59.327Z,8.07
2018-08-09T08:37:33.691Z,7.93
2018-08-09T08:40:08.371Z,9.37
2018-08-09T08:42:42.739Z,9.23
2018-08-09T08:45:17.040Z,9.33
2018-08-09T08:47:51.372Z,9.47
2018-08-09T08:50:25.647Z,9.43
2018-08-09T08:53:00.033Z,12.00
2018-08-09T08:55:34.363Z,12.27
2018-08-09T08:58:08.748Z,10.67
2018-08-09T09:00:42.939Z,13.07
2018-08-09T09:03:17.124Z,13.97
2018-08-09T09:05:51.456Z,13.50
2018-08-09T09:08:25.777Z,12.03
2018-08-09T09:11:00.008Z,13.90
2018-08-09T09:13:34.278Z,13.33
2018-08-09T09:16:08.633Z,14.00
2018-08-09T09:18:42.979Z,11.57
2018-08-09T09:21:17.216Z,13.60
2018-08-09T09:23:51.457Z,14.10
2018-08-09T09:26:25.988Z,13.80
2018-08-09T09:29:00.297Z,14.03
2018-08-09T09:31:34.564Z,14.03
2018-08-09T09:34:08.960Z,14.40
2018-08-09T09:36:43.316Z,13.73
2018-08-09T09:39:17.678Z,10.97
2018-08-09T09:41:51.876Z,12.63
2018-08-09T09:44:26.244Z,13.70
2018-08-09T09:47:00.532Z,13.83
2018-08-09T09:49:34.715Z,14.20
2018-08-09T09:52:08.944Z,11.10
2018-08-09T09:54:43.224Z,12.97
2018-08-09T09:57:17.624Z,14.27
2018-08-09T09:59:51.859Z,14.57
2018-08-09T10:02:26.125Z,13.40
2018-08-09T10:05:00.424Z,13.53
2018-08-09T10:07:34.683Z,13.70
2018-08-09T10:10:09.552Z,14.27
2018-08-09T10:12:43.960Z,13.60
2018-08-09T10:15:18.204Z,13.97
2018-08-09T10:17:52.556Z,13.27
2018-08-09T10:20:26.847Z,12.33
2018-08-09T10:23:01.076Z,12.57
2018-08-09T10:25:35.416Z,11.00
2018-08-09T10:28:09.711Z,12.50
2018-08-09T10:30:44.093Z,10.20
2018-08-09T10:33:18.423Z,12.07
2018-08-09T10:35:52.640Z,11.53
2018-08-09T10:38:26.834Z,10.70
2018-08-09T10:41:01.169Z,8.40
2018-08-09T10:43:35.476Z,11.17
2018-08-09T10:46:09.739Z,9.97
2018-08-09T10:48:44.072Z,8.67
2018-08-09T10:51:18.274Z,8.77
2018-08-09T10:53:52.583Z,8.83
2018-08-09T10:56:27.044Z,9.27
2018-08-09T10:59:01.270Z,8.90
2018-08-09T11:01:35.619Z,7.97
2018-08-09T11:04:10.031Z,8.60
2018-08-09T11:06:44.204Z,9.27
2018-08-09T11:09:18.598Z,9.40
2018-08-09T11:11:52.985Z,8.70
2018-08-09T11:14:27.341Z,6.90
2018-08-09T11:17:01.644Z,6.97
2018-08-09T11:19:35.792Z,6.70
2018-08-09T11:22:10.183Z,7.60
2018-08-09T11:24:44.390Z,5.63
2018-08-09T11:27:18.628Z,5.90
2018-08-09T11:29:52.917Z,6.63
2018-08-09T11:32:27.306Z,6.67
2018-08-09T11:35:01.580Z,7.43
2018-08-09T11:37:35.975Z,8.93
2018-08-09T11:40:10.327Z,7.33
2018-08-09T11:42:44.531Z,6.40
2018-08-09T11:45:18.851Z,7.47
2018-08-09T11:47:53.186Z,7.43
2018-08-09T11:50:27.388Z,7.83
2018-08-09T11:53:01.844Z,7.33
2018-08-09T11:55:36.036Z,8.80
2018-08-09T11:58:10.648Z,6.43
2018-08-09T12:00:45.714Z,7.77
2018-08-09T12:03:20.018Z,5.83
2018-08-09T12:05:54.304Z,7.33
2018-08-09T12:08:28.635Z,7.60
2018-08-09T12:14:47.075Z,8.07
2018-08-09T12:17:21.496Z,8.50
2018-08-09T12:19:55.676Z,9.60
2018-08-09T12:22:30.002Z,8.13
2018-08-09T12:25:04.656Z,9.53
2018-08-09T12:27:38.937Z,8.33
2018-08-09T12:30:14.934Z,10.00
2018-08-09T12:32:49.208Z,8.07
2018-08-09T12:35:23.508Z,9.17
2018-08-09T12:37:57.761Z,9.30
2018-08-09T12:40:32.174Z,9.40
2018-08-09T12:43:06.612Z,10.13
2018-08-09T12:45:40.805Z,10.23
2018-08-09T12:48:15.113Z,11.10
2018-08-09T12:50:54.319Z,9.33
2018-08-09T12:53:29.631Z,10.70
2018-08-09T12:56:04.092Z,9.73
2018-08-09T12:58:38.940Z,11.17
2018-08-09T13:01:13.353Z,11.10
2018-08-09T13:03:47.748Z,10.57
2018-08-09T13:06:22.053Z,10.13
2018-08-09T13:08:56.444Z,9.37
2018-08-09T13:11:32.382Z,10.27
2018-08-09T13:14:06.922Z,10.77
2018-08-09T13:16:41.327Z,11.03
2018-08-09T13:19:15.648Z,10.90
2018-08-09T13:21:50.056Z,9.57
2018-08-09T13:24:24.318Z,9.67
2018-08-09T13:26:58.812Z,9.70
2018-08-09T13:29:33.318Z,9.27
2018-08-09T13:32:07.575Z,9.53
2018-08-09T13:34:41.920Z,9.60
2018-08-09T13:37:16.528Z,9.50
2018-08-09T13:39:50.704Z,10.33
2018-08-09T13:42:24.967Z,9.83
2018-08-09T13:44:59.300Z,10.20
2018-08-09T13:47:33.491Z,10.00
2018-08-09T13:50:08.173Z,10.23
2018-08-09T13:52:42.735Z,9.87
2018-08-09T13:55:16.955Z,9.40
2018-08-09T13:57:51.120Z,10.13
2018-08-09T14:00:25.432Z,10.17
2018-08-09T14:02:59.611Z,9.63
2018-08-09T14:05:33.968Z,9.33
2018-08-09T14:08:08.336Z,9.37
2018-08-09T14:10:42.716Z,9.37
2018-08-09T14:13:17.220Z,9.80
2018-08-09T14:15:51.603Z,8.67
2018-08-09T14:18:25.932Z,9.93
2018-08-09T14:21:00.314Z,11.67
2018-08-09T14:23:34.590Z,10.57
2018-08-09T14:26:08.989Z,8.07
2018-08-09T14:28:43.204Z,8.60
2018-08-09T14:43:21.965Z,8.03
2018-08-09T14:45:56.341Z,8.43
2018-08-09T14:48:30.902Z,8.00
2018-08-09T14:51:05.299Z,8.13
2018-08-09T14:53:39.534Z,8.87
2018-08-09T14:56:14.008Z,8.00
2018-08-09T14:58:48.383Z,7.70
2018-08-09T15:01:22.697Z,7.03
2018-08-09T15:03:56.891Z,6.57
2018-08-09T15:06:31.792Z,5.73
2018-08-09T15:09:08.396Z,4.77
2018-08-09T15:11:42.761Z,4.80
2018-08-09T15:14:17.217Z,4.30
2018-08-09T15:16:51.456Z,6.10
2018-08-09T15:19:25.787Z,4.97
2018-08-09T15:22:00.033Z,3.63
2018-08-09T15:24:34.624Z,4.27
2018-08-09T15:27:08.820Z,4.10
2018-08-09T15:29:43.772Z,3.90
2018-08-09T15:32:18.072Z,4.20
2018-08-09T15:34:52.380Z,4.03
2018-08-09T15:37:26.685Z,4.07
2018-08-09T15:40:01.266Z,2.77
2018-08-09T15:42:35.788Z,3.47
2018-08-09T15:45:11.581Z,3.30
2018-08-09T15:47:45.854Z,2.83
2018-08-09T15:50:20.684Z,3.30
2018-08-09T15:52:54.933Z,3.47
2018-08-09T15:55:29.240Z,3.30
2018-08-09T15:58:03.820Z,3.20
2018-08-09T16:00:38.261Z,3.43
2018-08-09T16:03:12.582Z,3.87
2018-08-09T16:05:47.145Z,3.10
2018-08-09T16:08:21.650Z,3.50
2018-08-09T16:10:56.021Z,3.43
2018-08-09T16:13:30.361Z,3.20
2018-08-09T16:16:05.122Z,3.00
2018-08-09T16:18:40.464Z,3.00
2018-08-09T16:21:14.688Z,2.97
2018-08-09T16:23:48.909Z,3.50
2018-08-09T16:26:23.332Z,3.20
2018-08-09T16:28:57.547Z,3.10
2018-08-09T16:31:31.777Z,3.00
2018-08-09T16:34:06.074Z,3.33
2018-08-09T16:36:40.396Z,3.50
2018-08-09T16:39:14.969Z,3.50
2018-08-09T16:41:49.260Z,3.20
2018-08-09T16:44:23.657Z,3.37
2018-08-09T16:47:03.900Z,3.00
2018-08-09T16:49:38.168Z,3.03
2018-08-09T16:52:12.416Z,3.07
2018-08-09T16:54:46.789Z,2.93
2018-08-09T16:57:21.080Z,3.00
2018-08-09T16:59:55.516Z,3.67
2018-08-09T17:02:29.852Z,3.23
2018-08-09T17:05:05.582Z,3.53
2018-08-09T17:07:40.144Z,3.30
2018-08-09T17:10:15.983Z,3.57
2018-08-09T17:12:50.408Z,3.20
2018-08-09T17:15:26.497Z,3.07
2018-08-09T17:18:00.676Z,3.23
2018-08-09T17:20:35.032Z,3.07
2018-08-09T17:23:09.368Z,2.90
2018-08-09T17:25:43.656Z,3.33
2018-08-09T17:28:18.052Z,3.00
2018-08-09T17:30:52.340Z,2.87
2018-08-09T17:33:26.603Z,2.90
2018-08-09T17:36:00.908Z,2.73
2018-08-09T17:38:35.152Z,2.43
2018-08-09T17:41:09.324Z,2.90
2018-08-09T17:43:43.628Z,3.00
2018-08-09T17:46:17.983Z,3.10
2018-08-09T17:48:52.509Z,2.60
2018-08-09T17:51:26.811Z,2.87
2018-08-09T17:54:01.013Z,2.50
2018-08-09T17:56:35.316Z,2.67
2018-08-09T17:59:09.560Z,2.73
2018-08-09T18:01:43.988Z,2.40
2018-08-09T18:04:18.412Z,2.30
2018-08-09T18:06:52.699Z,2.27
2018-08-09T18:09:26.984Z,2.50
2018-08-09T18:12:01.351Z,2.67
2018-08-09T18:14:35.528Z,2.50
2018-08-09T18:17:09.696Z,2.57
2018-08-09T18:19:43.882Z,2.13
2018-08-09T18:22:18.168Z,2.43
2018-08-09T18:24:52.483Z,2.33
2018-08-09T18:27:26.827Z,2.07
2018-08-09T18:30:01.147Z,2.27
2018-08-09T18:32:35.460Z,2.60
2018-08-09T18:35:11.519Z,2.13
2018-08-09T18:37:45.825Z,1.90
2018-08-09T18:40:22.266Z,2.53
2018-08-09T18:42:56.669Z,2.47
2018-08-09T18:45:31.076Z,2.17
2018-08-09T18:48:05.445Z,1.90
2018-08-09T18:50:39.748Z,2.10
2018-08-09T18:53:14.215Z,2.03
2018-08-09T18:55:48.552Z,1.73
2018-08-09T18:58:22.852Z,2.30
2018-08-09T19:00:57.192Z,2.37
2018-08-09T19:03:31.488Z,1.90
2018-08-09T19:06:05.948Z,2.33
2018-08-09T19:08:40.133Z,2.37
2018-08-09T19:11:14.328Z,2.13
2018-08-09T19:13:48.737Z,2.17
2018-08-09T19:16:23.052Z,1.90
2018-08-09T19:18:57.566Z,2.33
2018-08-09T19:21:31.796Z,2.03
2018-08-09T19:24:06.033Z,2.20
2018-08-09T19:26:40.192Z,2.33
2018-08-09T19:29:14.388Z,2.47
2018-08-09T19:31:48.636Z,2.10
2018-08-09T19:34:22.856Z,1.90
2018-08-09T19:36:57.120Z,2.60
2018-08-09T19:39:31.432Z,2.13
2018-08-09T19:42:05.701Z,1.97
2018-08-09T19:44:40.051Z,2.30
2018-08-09T19:47:14.412Z,2.00
2018-08-09T19:49:48.585Z,1.90
2018-08-09T19:52:22.930Z,1.87
2018-08-09T19:54:57.216Z,2.30
2018-08-09T19:57:31.540Z,2.10
2018-08-09T20:00:07.268Z,2.30
2018-08-09T20:02:41.576Z,5.70
2018-08-09T20:05:15.820Z,1.77
2018-08-09T20:07:49.991Z,2.30
2018-08-09T20:10:24.319Z,2.10
2018-08-09T20:12:58.568Z,1.70
2018-08-09T20:15:32.748Z,1.60
2018-08-09T20:18:07.036Z,1.80
2018-08-09T20:20:41.376Z,1.70
2018-08-09T20:23:15.711Z,1.40
2018-08-09T20:25:49.968Z,2.00
2018-08-09T20:28:24.228Z,1.93
2018-08-09T20:30:58.612Z,1.80
2018-08-09T20:33:32.924Z,2.00
2018-08-09T20:36:07.283Z,1.97
2018-08-09T20:38:41.584Z,1.70
2018-08-09T20:41:15.948Z,1.90
2018-08-09T20:43:50.189Z,1.70
2018-08-09T20:46:24.415Z,1.90
2018-08-09T20:48:58.735Z,1.90
2018-08-09T20:51:32.996Z,2.00
2018-08-09T20:54:07.280Z,1.60
2018-08-09T20:56:41.683Z,2.03
2018-08-09T20:59:16.018Z,2.00
2018-08-09T21:01:50.344Z,1.40
2018-08-09T21:04:24.616Z,1.87
2018-08-09T21:06:58.909Z,1.80
2018-08-09T21:09:33.195Z,1.60
2018-08-09T21:12:07.524Z,1.57
2018-08-09T21:14:41.829Z,1.57
2018-08-09T21:17:16.272Z,1.40
2018-08-09T21:19:50.608Z,1.63
2018-08-09T21:22:24.780Z,1.40
2018-08-09T21:24:59.211Z,1.70
2018-08-09T21:27:33.384Z,1.33
2018-08-09T21:30:09.684Z,1.40
2018-08-09T21:32:44.375Z,1.63
2018-08-09T21:35:18.767Z,1.70
2018-08-09T21:37:53.026Z,1.20
2018-08-09T21:40:27.836Z,1.30
2018-08-09T21:43:02.193Z,1.40
2018-08-09T21:45:36.484Z,1.50
2018-08-09T21:48:10.628Z,1.20
2018-08-09T21:50:44.908Z,1.40
2018-08-09T21:53:19.164Z,1.40
2018-08-09T21:55:53.376Z,1.20
2018-08-09T21:58:27.676Z,1.60
2018-08-09T22:01:04.143Z,1.27
2018-08-09T22:03:38.612Z,1.40
2018-08-09T22:06:18.308Z,1.63
2018-08-09T22:08:57.667Z,1.70
2018-08-09T22:11:37.492Z,1.20
2018-08-09T22:14:17.024Z,1.50
2018-08-09T22:16:56.801Z,1.20
2018-08-09T22:19:36.396Z,1.20
2018-08-09T22:22:12.219Z,1.20
2018-08-09T22:24:46.657Z,1.27
2018-08-09T22:27:20.983Z,1.20
2018-08-09T22:29:55.287Z,1.30
2018-08-09T22:32:29.641Z,1.10
2018-08-09T22:35:04.956Z,1.07
2018-08-09T22:37:39.283Z,1.23
2018-08-09T22:40:13.509Z,1.10
2018-08-09T22:42:47.869Z,0.97
2018-08-09T22:45:22.215Z,1.10
2018-08-09T22:47:56.634Z,1.00
2018-08-09T22:50:30.908Z,1.20
2018-08-09T22:53:05.336Z,0.90
2018-08-09T22:55:39.552Z,1.10
2018-08-09T22:58:14.016Z,1.10
2018-08-09T23:00:48.232Z,1.07
2018-08-09T23:03:22.589Z,0.90
2018-08-09T23:05:56.796Z,0.93
2018-08-09T23:08:30.948Z,0.80
2018-08-09T23:11:05.499Z,0.90
2018-08-09T23:13:39.844Z,1.10
2018-08-09T23:16:14.076Z,1.17
2018-08-09T23:18:48.408Z,0.80
2018-08-09T23:21:22.664Z,0.80
2018-08-09T23:23:57.020Z,0.90
2018-08-09T23:26:31.397Z,0.90
2018-08-09T23:29:05.778Z,0.80
2018-08-09T23:31:40.149Z,0.80
2018-08-09T23:34:14.508Z,0.80
2018-08-09T23:36:48.770Z,1.00
2018-08-09T23:39:23.140Z,1.00
2018-08-09T23:41:57.460Z,0.80
2018-08-09T23:44:31.684Z,0.70
2018-08-09T23:47:06.388Z,0.80
2018-08-09T23:49:40.771Z,0.70
2018-08-09T23:52:15.079Z,0.80
2018-08-09T23:54:49.731Z,0.80
2018-08-09T23:57:24.066Z,0.80
2018-08-09T23:59:58.404Z,0.90
